createdAt,value
2017-01-30T00:00:29.139Z,944.7
2017-01-30T00:01:37.226Z,944.7
2017-01-30T00:02:45.373Z,944.7
2017-01-30T00:03:53.466Z,944.6
2017-01-30T00:05:01.495Z,944.6
2017-01-30T00:06:09.591Z,944.6
2017-01-30T00:07:17.677Z,944.6
2017-01-30T00:08:25.797Z,944.6
2017-01-30T00:09:33.996Z,944.6
2017-01-30T00:10:41.948Z,944.6
2017-01-30T00:11:50.038Z,944.6
2017-01-30T00:12:58.124Z,944.6
2017-01-30T00:14:06.373Z,944.6
2017-01-30T00:15:14.367Z,944.5
2017-01-30T00:16:22.401Z,944.5
2017-01-30T00:17:30.499Z,944.5
2017-01-30T00:18:38.644Z,944.5
2017-01-30T00:19:46.686Z,944.5
2017-01-30T00:20:54.906Z,944.5
2017-01-30T00:22:02.879Z,944.5
2017-01-30T00:23:10.968Z,944.5
2017-01-30T00:24:19.095Z,944.5
2017-01-30T00:25:27.152Z,944.4
2017-01-30T00:26:35.298Z,944.4
2017-01-30T00:27:43.330Z,944.4
2017-01-30T00:28:51.461Z,944.4
2017-01-30T00:29:59.643Z,944.4
2017-01-30T00:31:07.600Z,944.4
2017-01-30T00:32:15.814Z,944.4
2017-01-30T00:33:23.788Z,944.4
2017-01-30T00:34:31.935Z,944.4
2017-01-30T00:35:39.968Z,944.4
2017-01-30T00:36:48.058Z,944.4
2017-01-30T00:37:56.212Z,944.4
2017-01-30T00:39:04.248Z,944.4
2017-01-30T00:40:12.343Z,944.4
2017-01-30T00:41:20.432Z,944.4
2017-01-30T00:42:28.523Z,944.3
2017-01-30T00:43:36.728Z,944.4
2017-01-30T00:44:44.701Z,944.3
2017-01-30T00:45:52.798Z,944.4
2017-01-30T00:47:00.892Z,944.3
2017-01-30T00:48:08.976Z,944.3
2017-01-30T00:49:17.127Z,944.3
2017-01-30T00:50:25.301Z,944.2
2017-01-30T00:51:33.337Z,944.2
2017-01-30T00:52:41.345Z,944.2
2017-01-30T00:53:49.439Z,944.2
2017-01-30T00:54:57.588Z,944.2
2017-01-30T00:56:05.620Z,944.2
2017-01-30T00:57:13.714Z,944.2
2017-01-30T00:58:21.815Z,944.2
2017-01-30T00:59:29.892Z,944.1
2017-01-30T01:00:38.042Z,944.1
2017-01-30T01:01:46.126Z,944.1
2017-01-30T01:02:54.171Z,944.1
2017-01-30T01:04:02.259Z,944.0
2017-01-30T01:05:10.351Z,944.0
2017-01-30T01:06:18.499Z,944.0
2017-01-30T01:07:26.529Z,944.0
2017-01-30T01:08:34.628Z,944.0
2017-01-30T01:09:42.723Z,944.0
2017-01-30T01:10:50.817Z,944.0
2017-01-30T01:11:58.965Z,944.0
2017-01-30T01:13:07.003Z,944.0
2017-01-30T01:14:15.096Z,944.0
2017-01-30T01:15:23.193Z,944.0
2017-01-30T01:16:31.312Z,944.0
2017-01-30T01:17:39.515Z,943.9
2017-01-30T01:18:47.469Z,943.9
2017-01-30T01:19:55.558Z,943.9
2017-01-30T01:21:03.650Z,943.9
2017-01-30T01:22:11.801Z,943.9
2017-01-30T01:23:19.888Z,943.9
2017-01-30T01:24:27.928Z,943.9
2017-01-30T01:25:36.020Z,943.9
2017-01-30T01:26:44.109Z,943.8
2017-01-30T01:27:52.198Z,943.8
2017-01-30T01:29:00.416Z,943.8
2017-01-30T01:30:08.389Z,943.8
2017-01-30T01:31:16.483Z,943.8
2017-01-30T01:32:24.692Z,943.8
2017-01-30T01:33:32.754Z,943.8
2017-01-30T01:34:40.812Z,943.8
2017-01-30T01:35:48.843Z,943.8
2017-01-30T01:36:56.936Z,943.8
2017-01-30T01:38:05.156Z,943.8
2017-01-30T01:39:13.115Z,943.8
2017-01-30T01:40:21.266Z,943.8
2017-01-30T01:41:29.303Z,943.8
2017-01-30T01:42:37.387Z,943.7
2017-01-30T01:43:45.479Z,943.7
2017-01-30T01:44:53.575Z,943.7
2017-01-30T01:46:01.719Z,943.7
2017-01-30T01:47:09.755Z,943.6
2017-01-30T01:48:17.964Z,943.7
2017-01-30T01:49:25.942Z,943.7
2017-01-30T01:50:34.038Z,943.7
2017-01-30T01:51:42.246Z,943.6
2017-01-30T01:52:50.219Z,943.7
2017-01-30T01:53:58.361Z,943.7
2017-01-30T01:55:06.396Z,943.7
2017-01-30T01:56:14.488Z,943.7
2017-01-30T01:57:22.636Z,943.7
2017-01-30T01:58:30.741Z,943.7
2017-01-30T01:59:38.815Z,943.7
2017-01-30T02:00:46.857Z,943.7
2017-01-30T02:01:54.955Z,943.7
2017-01-30T02:03:03.344Z,943.6
2017-01-30T02:04:11.303Z,943.6
2017-01-30T02:05:19.223Z,943.7
2017-01-30T02:06:27.310Z,943.6
2017-01-30T02:07:35.402Z,943.7
2017-01-30T02:08:43.552Z,943.7
2017-01-30T02:09:51.674Z,943.6
2017-01-30T02:10:59.678Z,943.6
2017-01-30T02:12:07.771Z,943.7
2017-01-30T02:13:15.875Z,943.6
2017-01-30T02:14:24.159Z,943.6
2017-01-30T02:15:32.045Z,943.6
2017-01-30T02:16:40.138Z,943.6
2017-01-30T02:17:48.225Z,943.5
2017-01-30T02:18:56.316Z,943.6
2017-01-30T02:20:04.541Z,943.5
2017-01-30T02:21:12.510Z,943.6
2017-01-30T02:22:20.599Z,943.5
2017-01-30T02:23:28.696Z,943.5
2017-01-30T02:24:36.790Z,943.5
2017-01-30T02:25:45.089Z,943.5
2017-01-30T02:26:52.967Z,943.5
2017-01-30T02:28:01.059Z,943.5
2017-01-30T02:29:09.151Z,943.5
2017-01-30T02:30:17.240Z,943.5
2017-01-30T02:31:25.390Z,943.5
2017-01-30T02:32:33.422Z,943.5
2017-01-30T02:33:41.515Z,943.5
2017-01-30T02:34:49.606Z,943.5
2017-01-30T02:35:57.700Z,943.5
2017-01-30T02:37:05.914Z,943.5
2017-01-30T02:38:13.890Z,943.4
2017-01-30T02:39:21.979Z,943.5
2017-01-30T02:40:30.070Z,943.5
2017-01-30T02:41:38.227Z,943.4
2017-01-30T02:42:46.304Z,943.4
2017-01-30T02:43:54.347Z,943.4
2017-01-30T02:45:02.440Z,943.4
2017-01-30T02:46:10.533Z,943.4
2017-01-30T02:47:18.723Z,943.4
2017-01-30T02:48:26.780Z,943.4
2017-01-30T02:49:34.814Z,943.3
2017-01-30T02:50:42.900Z,943.3
2017-01-30T02:51:51.001Z,943.3
2017-01-30T02:52:59.094Z,943.3
2017-01-30T02:54:07.300Z,943.3
2017-01-30T02:55:15.275Z,943.3
2017-01-30T02:56:23.365Z,943.4
2017-01-30T02:57:31.512Z,943.4
2017-01-30T02:58:39.546Z,943.4
2017-01-30T02:59:47.706Z,943.4
2017-01-30T03:00:55.739Z,943.3
2017-01-30T03:02:03.948Z,943.3
2017-01-30T03:03:12.021Z,943.3
2017-01-30T03:04:20.014Z,943.3
2017-01-30T03:05:28.158Z,943.3
2017-01-30T03:06:36.192Z,943.3
2017-01-30T03:07:44.286Z,943.3
2017-01-30T03:08:52.372Z,943.3
2017-01-30T03:10:00.466Z,943.3
2017-01-30T03:11:08.683Z,943.3
2017-01-30T03:12:16.654Z,943.3
2017-01-30T03:13:24.990Z,943.3
2017-01-30T03:14:32.840Z,943.3
2017-01-30T03:15:40.935Z,943.3
2017-01-30T03:16:49.078Z,943.3
2017-01-30T03:17:57.110Z,943.3
2017-01-30T03:19:05.211Z,943.3
2017-01-30T03:20:13.305Z,943.3
2017-01-30T03:21:21.391Z,943.3
2017-01-30T03:22:29.538Z,943.3
2017-01-30T03:23:37.745Z,943.3
2017-01-30T03:24:45.836Z,943.3
2017-01-30T03:25:53.757Z,943.3
2017-01-30T03:27:01.854Z,943.3
2017-01-30T03:28:10.067Z,943.3
2017-01-30T03:29:18.090Z,943.3
2017-01-30T03:30:26.129Z,943.3
2017-01-30T03:31:34.219Z,943.3
2017-01-30T03:32:42.308Z,943.2
2017-01-30T03:33:50.453Z,943.2
2017-01-30T03:34:58.606Z,943.2
2017-01-30T03:36:06.582Z,943.2
2017-01-30T03:37:14.673Z,943.2
2017-01-30T03:38:22.769Z,943.2
2017-01-30T03:39:30.915Z,943.2
2017-01-30T03:40:38.948Z,943.2
2017-01-30T03:41:47.035Z,943.2
2017-01-30T03:42:55.135Z,943.1
2017-01-30T03:44:03.225Z,943.1
2017-01-30T03:45:11.438Z,943.1
2017-01-30T03:46:19.404Z,943.1
2017-01-30T03:47:27.492Z,943.1
2017-01-30T03:48:35.588Z,943.1
2017-01-30T03:49:43.676Z,943.1
2017-01-30T03:50:51.830Z,943.1
2017-01-30T03:51:59.863Z,943.0
2017-01-30T03:53:07.951Z,943.1
2017-01-30T03:54:16.046Z,943.1
2017-01-30T03:55:24.135Z,943.0
2017-01-30T03:56:32.355Z,943.1
2017-01-30T03:57:40.315Z,943.0
2017-01-30T03:58:48.412Z,943.0
2017-01-30T03:59:56.506Z,943.0
2017-01-30T04:01:04.888Z,943.0
2017-01-30T04:02:12.793Z,943.0
2017-01-30T04:03:20.776Z,943.0
2017-01-30T04:04:28.867Z,943.0
2017-01-30T04:05:36.954Z,943.0
2017-01-30T04:06:45.049Z,943.0
2017-01-30T04:07:53.189Z,943.0
2017-01-30T04:09:01.227Z,943.0
2017-01-30T04:10:09.323Z,943.0
2017-01-30T04:11:17.416Z,943.0
2017-01-30T04:12:25.510Z,943.0
2017-01-30T04:13:33.718Z,943.0
2017-01-30T04:14:41.696Z,943.0
2017-01-30T04:15:49.782Z,943.0
2017-01-30T04:16:58.114Z,943.0
2017-01-30T04:18:05.968Z,943.0
2017-01-30T04:19:14.119Z,943.0
2017-01-30T04:20:22.160Z,943.0
2017-01-30T04:21:30.246Z,943.0
2017-01-30T04:22:38.340Z,943.0
2017-01-30T04:23:46.430Z,943.0
2017-01-30T04:24:54.576Z,943.1
2017-01-30T04:26:02.612Z,943.1
2017-01-30T04:27:10.847Z,943.0
2017-01-30T04:28:18.930Z,943.0
2017-01-30T04:29:26.877Z,943.0
2017-01-30T04:30:35.090Z,943.0
2017-01-30T04:31:43.060Z,943.0
2017-01-30T04:32:51.209Z,943.0
2017-01-30T04:33:59.250Z,943.0
2017-01-30T04:35:07.342Z,943.0
2017-01-30T04:36:15.495Z,943.0
2017-01-30T04:37:23.531Z,943.0
2017-01-30T04:38:31.720Z,943.0
2017-01-30T04:39:39.717Z,943.1
2017-01-30T04:40:47.800Z,943.1
2017-01-30T04:41:56.014Z,943.1
2017-01-30T04:43:03.984Z,943.1
2017-01-30T04:44:12.071Z,943.1
2017-01-30T04:45:20.163Z,943.1
2017-01-30T04:46:28.259Z,943.1
2017-01-30T04:47:36.404Z,943.1
2017-01-30T04:48:44.491Z,943.1
2017-01-30T04:49:52.530Z,943.2
2017-01-30T04:51:00.617Z,943.1
2017-01-30T04:52:08.710Z,943.1
2017-01-30T04:53:16.921Z,943.1
2017-01-30T04:54:25.052Z,943.0
2017-01-30T04:55:32.977Z,943.1
2017-01-30T04:56:41.071Z,943.1
2017-01-30T04:57:49.175Z,943.0
2017-01-30T04:58:57.315Z,943.1
2017-01-30T05:00:05.350Z,943.1
2017-01-30T05:01:13.440Z,943.0
2017-01-30T05:02:21.526Z,943.0
2017-01-30T05:03:29.617Z,943.0
2017-01-30T05:04:37.942Z,943.0
2017-01-30T05:05:45.795Z,943.0
2017-01-30T05:06:53.883Z,943.0
2017-01-30T05:08:01.972Z,943.0
2017-01-30T05:09:10.068Z,942.9
2017-01-30T05:10:18.213Z,942.9
2017-01-30T05:11:26.248Z,942.9
2017-01-30T05:12:34.332Z,942.9
2017-01-30T05:13:42.431Z,942.9
2017-01-30T05:14:50.522Z,942.9
2017-01-30T05:15:58.755Z,943.0
2017-01-30T05:17:06.700Z,942.9
2017-01-30T05:18:14.797Z,942.9
2017-01-30T05:19:22.875Z,942.9
2017-01-30T05:20:31.169Z,942.9
2017-01-30T05:21:39.124Z,942.8
2017-01-30T05:22:47.158Z,942.8
2017-01-30T05:23:55.243Z,942.8
2017-01-30T05:25:03.334Z,942.8
2017-01-30T05:26:11.433Z,942.8
2017-01-30T05:27:19.647Z,942.7
2017-01-30T05:28:27.613Z,942.8
2017-01-30T05:29:35.711Z,942.8
2017-01-30T05:30:43.899Z,942.7
2017-01-30T05:31:51.961Z,942.7
2017-01-30T05:33:00.045Z,942.7
2017-01-30T05:34:08.077Z,942.7
2017-01-30T05:35:16.166Z,942.7
2017-01-30T05:36:24.550Z,942.7
2017-01-30T05:37:32.350Z,942.7
2017-01-30T05:38:40.494Z,942.7
2017-01-30T05:39:48.527Z,942.7
2017-01-30T05:40:56.622Z,942.7
2017-01-30T05:42:04.770Z,942.6
2017-01-30T05:43:12.795Z,942.6
2017-01-30T05:44:20.949Z,942.6
2017-01-30T05:45:28.989Z,942.6
2017-01-30T05:46:37.075Z,942.6
2017-01-30T05:47:45.165Z,942.5
2017-01-30T05:48:53.261Z,942.5
2017-01-30T05:50:01.498Z,942.5
2017-01-30T05:51:09.444Z,942.5
2017-01-30T05:52:17.663Z,942.5
2017-01-30T05:53:25.683Z,942.4
2017-01-30T05:54:33.713Z,942.4
2017-01-30T05:55:41.859Z,942.4
2017-01-30T05:56:50.011Z,942.4
2017-01-30T05:57:58.183Z,942.4
2017-01-30T05:59:06.074Z,942.4
2017-01-30T06:00:14.167Z,942.4
2017-01-30T06:01:22.385Z,942.4
2017-01-30T06:02:30.350Z,942.4
2017-01-30T06:03:38.465Z,942.4
2017-01-30T06:04:46.542Z,942.4
2017-01-30T06:05:54.634Z,942.3
2017-01-30T06:07:02.771Z,942.3
2017-01-30T06:08:10.952Z,942.3
2017-01-30T06:09:18.906Z,942.3
2017-01-30T06:10:26.991Z,942.3
2017-01-30T06:11:35.090Z,942.3
2017-01-30T06:12:43.304Z,942.3
2017-01-30T06:13:51.279Z,942.3
2017-01-30T06:14:59.363Z,942.3
2017-01-30T06:16:07.452Z,942.3
2017-01-30T06:17:15.548Z,942.3
2017-01-30T06:18:23.700Z,942.3
2017-01-30T06:19:31.739Z,942.3
2017-01-30T06:20:39.823Z,942.3
2017-01-30T06:21:47.913Z,942.3
2017-01-30T06:22:55.998Z,942.3
2017-01-30T06:24:04.349Z,942.2
2017-01-30T06:25:12.181Z,942.2
2017-01-30T06:26:20.286Z,942.3
2017-01-30T06:27:28.367Z,942.2
2017-01-30T06:28:36.460Z,942.2
2017-01-30T06:29:44.605Z,942.2
2017-01-30T06:30:52.637Z,942.3
2017-01-30T06:32:00.730Z,942.2
2017-01-30T06:33:08.822Z,942.3
2017-01-30T06:34:16.991Z,942.3
2017-01-30T06:35:25.166Z,942.3
2017-01-30T06:36:33.093Z,942.2
2017-01-30T06:37:41.187Z,942.3
2017-01-30T06:38:49.457Z,942.3
2017-01-30T06:39:57.420Z,942.3
2017-01-30T06:41:05.573Z,942.3
2017-01-30T06:42:13.551Z,942.3
2017-01-30T06:43:21.630Z,942.3
2017-01-30T06:44:29.725Z,942.3
2017-01-30T06:45:37.840Z,942.3
2017-01-30T06:46:46.022Z,942.2
2017-01-30T06:47:53.994Z,942.2
2017-01-30T06:49:02.087Z,942.2
2017-01-30T06:50:10.307Z,942.2
2017-01-30T06:51:18.266Z,942.2
2017-01-30T06:52:26.416Z,942.2
2017-01-30T06:53:34.451Z,942.2
2017-01-30T06:54:42.537Z,942.2
2017-01-30T06:55:50.751Z,942.2
2017-01-30T06:56:58.723Z,942.3
2017-01-30T06:58:06.868Z,942.3
2017-01-30T06:59:14.904Z,942.3
2017-01-30T07:00:23.128Z,942.4
2017-01-30T07:01:31.222Z,942.3
2017-01-30T07:02:39.177Z,942.3
2017-01-30T07:03:47.327Z,942.4
2017-01-30T07:04:55.369Z,942.4
2017-01-30T07:06:03.463Z,942.4
2017-01-30T07:07:11.556Z,942.4
2017-01-30T07:08:19.686Z,942.4
2017-01-30T07:09:27.804Z,942.4
2017-01-30T07:10:35.839Z,942.4
2017-01-30T07:11:44.109Z,942.4
2017-01-30T07:12:52.027Z,942.4
2017-01-30T07:14:00.116Z,942.4
2017-01-30T07:15:08.259Z,942.4
2017-01-30T07:16:16.302Z,942.4
2017-01-30T07:17:24.397Z,942.4
2017-01-30T07:18:32.485Z,942.4
2017-01-30T07:19:40.583Z,942.5
2017-01-30T07:20:48.728Z,942.4
2017-01-30T07:21:56.759Z,942.4
2017-01-30T07:23:04.853Z,942.3
2017-01-30T07:24:12.946Z,942.3
2017-01-30T07:25:21.036Z,942.2
2017-01-30T07:26:29.188Z,942.3
2017-01-30T07:27:37.462Z,942.2
2017-01-30T07:28:45.320Z,942.2
2017-01-30T07:29:53.410Z,942.2
2017-01-30T07:31:01.503Z,942.2
2017-01-30T07:32:09.649Z,942.1
2017-01-30T07:33:17.680Z,941.9
2017-01-30T07:34:25.771Z,941.8
2017-01-30T07:35:33.864Z,941.9
2017-01-30T07:36:41.959Z,941.9
2017-01-30T07:37:50.157Z,941.9
2017-01-30T07:38:58.171Z,941.8
2017-01-30T07:40:06.239Z,941.8
2017-01-30T07:41:14.331Z,941.8
2017-01-30T07:42:22.477Z,941.7
2017-01-30T07:43:30.783Z,941.8
2017-01-30T07:44:38.597Z,941.8
2017-01-30T07:45:46.687Z,941.9
2017-01-30T07:46:54.781Z,942.0
2017-01-30T07:48:03.294Z,942.0
2017-01-30T07:49:11.024Z,941.9
2017-01-30T07:50:19.053Z,942.0
2017-01-30T07:51:27.149Z,941.9
2017-01-30T07:52:35.238Z,941.9
2017-01-30T07:53:43.330Z,941.9
2017-01-30T07:54:51.546Z,942.0
2017-01-30T07:55:59.518Z,941.9
2017-01-30T07:57:07.629Z,941.9
2017-01-30T07:58:15.707Z,941.9
2017-01-30T07:59:23.916Z,941.8
2017-01-30T08:00:32.135Z,941.8
2017-01-30T08:01:39.977Z,941.8
2017-01-30T08:02:48.080Z,941.7
2017-01-30T08:03:56.172Z,941.8
2017-01-30T08:05:04.276Z,941.8
2017-01-30T08:06:12.471Z,941.9
2017-01-30T08:07:20.443Z,941.9
2017-01-30T08:08:28.636Z,941.9
2017-01-30T08:09:36.710Z,941.9
2017-01-30T08:10:44.710Z,941.9
2017-01-30T08:11:52.857Z,941.8
2017-01-30T08:13:00.898Z,941.8
2017-01-30T08:14:08.992Z,941.8
2017-01-30T08:15:17.142Z,941.8
2017-01-30T08:16:25.177Z,941.8
2017-01-30T08:17:33.383Z,941.8
2017-01-30T08:18:41.606Z,941.8
2017-01-30T08:19:49.453Z,941.8
2017-01-30T08:20:57.543Z,941.8
2017-01-30T08:22:05.633Z,941.8
2017-01-30T08:23:13.785Z,941.8
2017-01-30T08:24:21.820Z,941.8
2017-01-30T08:25:29.928Z,941.8
2017-01-30T08:26:37.999Z,941.9
2017-01-30T08:27:46.100Z,941.8
2017-01-30T08:28:54.303Z,941.8
2017-01-30T08:30:02.269Z,941.8
2017-01-30T08:31:10.421Z,941.7
2017-01-30T08:32:18.455Z,941.7
2017-01-30T08:33:26.540Z,941.6
2017-01-30T08:34:34.761Z,941.7
2017-01-30T08:35:42.731Z,941.8
2017-01-30T08:36:50.817Z,941.8
2017-01-30T08:37:58.910Z,941.8
2017-01-30T08:39:07.155Z,941.9
2017-01-30T08:40:15.154Z,941.8
2017-01-30T08:41:23.250Z,941.8
2017-01-30T08:42:31.321Z,941.8
2017-01-30T08:43:39.373Z,941.8
2017-01-30T08:44:47.457Z,941.8
2017-01-30T08:45:55.696Z,941.7
2017-01-30T08:47:03.699Z,941.6
2017-01-30T08:48:11.767Z,941.5
2017-01-30T08:49:19.822Z,941.7
2017-01-30T08:50:27.923Z,941.7
2017-01-30T08:51:36.073Z,941.7
2017-01-30T08:52:44.127Z,941.6
2017-01-30T08:53:52.202Z,941.5
2017-01-30T08:55:00.662Z,941.6
2017-01-30T08:56:08.376Z,941.6
2017-01-30T08:57:16.683Z,941.6
2017-01-30T08:58:24.565Z,941.7
2017-01-30T08:59:32.659Z,941.8
2017-01-30T09:00:40.744Z,941.8
2017-01-30T09:01:48.840Z,941.8
2017-01-30T09:02:57.056Z,941.9
2017-01-30T09:04:05.020Z,941.9
2017-01-30T09:05:13.102Z,941.9
2017-01-30T09:06:21.204Z,941.9
2017-01-30T09:07:29.424Z,941.9
2017-01-30T09:08:37.630Z,941.8
2017-01-30T09:09:45.476Z,941.8
2017-01-30T09:10:53.565Z,941.8
2017-01-30T09:12:02.096Z,941.8
2017-01-30T09:13:10.226Z,941.7
2017-01-30T09:14:17.907Z,941.7
2017-01-30T09:15:25.941Z,941.7
2017-01-30T09:16:34.032Z,941.7
2017-01-30T09:17:42.121Z,941.7
2017-01-30T09:18:50.269Z,941.7
2017-01-30T09:19:58.425Z,941.7
2017-01-30T09:21:06.388Z,941.7
2017-01-30T09:22:14.489Z,941.7
2017-01-30T09:23:22.673Z,941.7
2017-01-30T09:24:30.662Z,941.7
2017-01-30T09:25:38.812Z,941.7
2017-01-30T09:26:46.846Z,941.7
2017-01-30T09:27:55.141Z,941.7
2017-01-30T09:29:03.024Z,941.7
2017-01-30T09:30:11.167Z,941.7
2017-01-30T09:31:19.261Z,941.7
2017-01-30T09:32:27.292Z,941.8
2017-01-30T09:33:35.393Z,941.8
2017-01-30T09:34:43.545Z,941.8
2017-01-30T09:35:51.576Z,941.8
2017-01-30T09:36:59.790Z,941.8
2017-01-30T09:38:07.763Z,941.8
2017-01-30T09:39:15.857Z,941.8
2017-01-30T09:40:23.946Z,941.8
2017-01-30T09:41:32.235Z,941.8
2017-01-30T09:42:40.186Z,941.8
2017-01-30T09:43:48.224Z,941.8
2017-01-30T09:44:56.318Z,941.7
2017-01-30T09:46:04.823Z,941.7
2017-01-30T09:47:12.500Z,941.7
2017-01-30T09:48:20.710Z,941.7
2017-01-30T09:49:28.836Z,941.8
2017-01-30T09:50:37.253Z,941.7
2017-01-30T09:51:44.869Z,941.7
2017-01-30T09:52:52.955Z,941.8
2017-01-30T09:54:01.171Z,941.9
2017-01-30T09:55:09.144Z,941.9
2017-01-30T09:56:17.230Z,941.9
2017-01-30T09:57:25.321Z,941.9
2017-01-30T09:58:33.411Z,942.0
2017-01-30T09:59:41.625Z,942.0
2017-01-30T10:00:49.716Z,942.0
2017-01-30T10:01:57.692Z,942.0
2017-01-30T10:03:05.791Z,942.1
2017-01-30T10:04:13.873Z,942.1
2017-01-30T10:05:22.022Z,942.0
2017-01-30T10:06:30.178Z,942.1
2017-01-30T10:07:38.174Z,942.1
2017-01-30T10:08:46.241Z,942.1
2017-01-30T10:09:54.329Z,942.1
2017-01-30T10:11:02.477Z,942.0
2017-01-30T10:12:10.513Z,941.8
2017-01-30T10:13:18.605Z,941.8
2017-01-30T10:14:26.967Z,941.6
2017-01-30T10:15:35.011Z,941.6
2017-01-30T10:16:43.000Z,941.5
2017-01-30T10:17:51.226Z,941.4
2017-01-30T10:18:59.066Z,941.7
2017-01-30T10:20:07.160Z,941.7
2017-01-30T10:21:15.252Z,941.7
2017-01-30T10:22:23.404Z,941.8
2017-01-30T10:23:31.434Z,941.7
2017-01-30T10:24:39.528Z,941.6
2017-01-30T10:25:47.621Z,941.5
2017-01-30T10:26:55.827Z,941.5
2017-01-30T10:28:03.855Z,941.3
2017-01-30T10:29:11.901Z,941.3
2017-01-30T10:30:19.989Z,941.3
2017-01-30T10:31:28.075Z,941.4
2017-01-30T10:32:36.169Z,941.3
2017-01-30T10:33:44.376Z,941.3
2017-01-30T10:34:52.646Z,941.2
2017-01-30T10:36:00.994Z,941.2
2017-01-30T10:37:08.719Z,941.1
2017-01-30T10:38:18.760Z,941.1
2017-01-30T10:39:24.767Z,941.0
2017-01-30T10:40:32.806Z,941.0
2017-01-30T10:41:40.899Z,941.0
2017-01-30T10:42:49.171Z,941.0
2017-01-30T10:43:57.088Z,940.9
2017-01-30T10:45:05.306Z,940.9
2017-01-30T10:46:13.272Z,940.9
2017-01-30T10:47:21.368Z,940.9
2017-01-30T10:48:29.462Z,940.9
2017-01-30T10:49:37.552Z,940.9
2017-01-30T10:50:45.762Z,940.9
2017-01-30T10:51:53.732Z,940.9
2017-01-30T10:53:01.946Z,940.8
2017-01-30T10:54:10.057Z,940.8
2017-01-30T10:55:18.008Z,940.9
2017-01-30T10:56:26.157Z,940.8
2017-01-30T10:57:34.192Z,940.9
2017-01-30T10:58:42.281Z,940.9
2017-01-30T10:59:50.371Z,940.8
2017-01-30T11:00:58.461Z,940.7
2017-01-30T11:02:06.672Z,940.7
2017-01-30T11:03:15.023Z,940.6
2017-01-30T11:04:22.840Z,940.7
2017-01-30T11:05:30.825Z,940.6
2017-01-30T11:06:38.916Z,940.6
2017-01-30T11:07:47.064Z,940.6
2017-01-30T11:08:55.094Z,940.7
2017-01-30T11:10:03.310Z,940.9
2017-01-30T11:11:11.277Z,941.0
2017-01-30T11:12:19.713Z,941.0
2017-01-30T11:13:27.526Z,940.9
2017-01-30T11:14:35.641Z,940.9
2017-01-30T11:15:43.703Z,940.9
2017-01-30T11:16:52.205Z,940.8
2017-01-30T11:18:00.012Z,940.8
2017-01-30T11:19:08.947Z,940.7
2017-01-30T11:20:16.214Z,940.6
2017-01-30T11:21:24.120Z,940.5
2017-01-30T11:22:32.203Z,940.5
2017-01-30T11:23:40.297Z,940.4
2017-01-30T11:24:49.180Z,940.5
2017-01-30T11:25:58.528Z,940.5
2017-01-30T11:27:04.575Z,940.4
2017-01-30T11:28:12.660Z,940.4
2017-01-30T11:29:20.753Z,940.3
2017-01-30T11:30:29.010Z,940.4
2017-01-30T11:31:36.939Z,940.5
2017-01-30T11:32:45.029Z,940.6
2017-01-30T11:33:53.115Z,940.6
2017-01-30T11:35:01.208Z,940.6
2017-01-30T11:36:09.360Z,940.5
2017-01-30T11:37:17.393Z,940.5
2017-01-30T11:38:25.481Z,940.5
2017-01-30T11:39:33.945Z,940.5
2017-01-30T11:40:41.695Z,940.5
2017-01-30T11:41:49.880Z,940.5
2017-01-30T11:42:57.843Z,940.5
2017-01-30T11:44:05.938Z,940.5
2017-01-30T11:45:14.029Z,940.5
2017-01-30T11:46:22.229Z,940.5
2017-01-30T11:47:30.267Z,940.5
2017-01-30T11:48:38.296Z,940.5
2017-01-30T11:49:46.389Z,940.6
2017-01-30T11:50:54.490Z,940.6
2017-01-30T11:52:02.579Z,940.5
2017-01-30T11:53:10.792Z,940.5
2017-01-30T11:54:18.762Z,940.5
2017-01-30T11:55:26.852Z,940.5
2017-01-30T11:56:34.949Z,940.5
2017-01-30T11:57:43.155Z,940.5
2017-01-30T11:58:51.184Z,940.5
2017-01-30T11:59:59.224Z,940.4
2017-01-30T12:01:07.333Z,940.3
2017-01-30T12:02:15.405Z,940.3
2017-01-30T12:03:23.499Z,940.2
2017-01-30T12:04:31.648Z,940.3
2017-01-30T12:05:39.695Z,940.4
2017-01-30T12:06:47.775Z,940.4
2017-01-30T12:07:55.868Z,940.4
2017-01-30T12:09:04.014Z,940.4
2017-01-30T12:10:12.103Z,940.3
2017-01-30T12:11:20.142Z,940.2
2017-01-30T12:12:28.307Z,940.2
2017-01-30T12:13:36.446Z,940.1
2017-01-30T12:14:44.418Z,940.0
2017-01-30T12:15:52.574Z,940.0
2017-01-30T12:17:00.819Z,939.9
2017-01-30T12:18:08.694Z,939.9
2017-01-30T12:19:16.918Z,939.9
2017-01-30T12:20:25.013Z,940.0
2017-01-30T12:21:33.133Z,940.0
2017-01-30T12:22:41.459Z,940.0
2017-01-30T12:23:49.807Z,940.0
2017-01-30T12:24:57.809Z,940.0
2017-01-30T12:26:05.360Z,940.1
2017-01-30T12:27:14.430Z,940.0
2017-01-30T12:28:21.704Z,940.0
2017-01-30T12:29:30.011Z,940.0
2017-01-30T12:30:38.061Z,940.0
2017-01-30T12:31:46.115Z,940.0
2017-01-30T12:32:54.208Z,940.0
2017-01-30T12:34:02.550Z,939.9
2017-01-30T12:35:10.162Z,940.0
2017-01-30T12:36:18.330Z,940.0
2017-01-30T12:37:26.571Z,939.9
2017-01-30T12:38:34.641Z,939.9
2017-01-30T12:39:42.821Z,939.9
2017-01-30T12:40:50.631Z,939.8
2017-01-30T12:41:59.043Z,939.7
2017-01-30T12:43:07.109Z,939.6
2017-01-30T12:44:16.859Z,939.6
2017-01-30T12:45:23.230Z,939.6
2017-01-30T12:46:31.033Z,939.6
2017-01-30T12:47:39.323Z,939.5
2017-01-30T12:48:47.283Z,939.6
2017-01-30T12:49:56.046Z,939.5
2017-01-30T12:51:03.626Z,939.5
2017-01-30T12:52:11.556Z,939.5
2017-01-30T12:53:19.761Z,939.5
2017-01-30T12:54:28.281Z,939.5
2017-01-30T12:55:36.483Z,939.5
2017-01-30T12:56:43.810Z,939.5
2017-01-30T12:57:52.020Z,939.5
2017-01-30T12:59:00.148Z,939.5
2017-01-30T13:00:08.612Z,939.4
2017-01-30T13:01:16.454Z,939.4
2017-01-30T13:02:24.346Z,939.4
2017-01-30T13:03:32.373Z,939.4
2017-01-30T13:04:40.645Z,939.4
2017-01-30T13:05:49.149Z,939.3
2017-01-30T13:06:57.502Z,939.3
2017-01-30T13:08:04.821Z,939.3
2017-01-30T13:09:13.260Z,939.3
2017-01-30T13:10:21.246Z,939.4
2017-01-30T13:11:29.143Z,939.3
2017-01-30T13:12:38.963Z,939.3
2017-01-30T13:13:45.545Z,939.3
2017-01-30T13:14:53.474Z,939.3
2017-01-30T13:16:01.412Z,939.3
2017-01-30T13:17:10.267Z,939.2
2017-01-30T13:18:18.269Z,939.2
2017-01-30T13:19:25.853Z,939.3
2017-01-30T13:20:33.820Z,939.2
2017-01-30T13:21:42.429Z,939.2
2017-01-30T13:22:50.143Z,939.2
2017-01-30T13:23:58.306Z,939.2
2017-01-30T13:25:06.250Z,939.1
2017-01-30T13:26:14.437Z,939.1
2017-01-30T13:27:22.583Z,939.1
2017-01-30T13:28:31.038Z,939.1
2017-01-30T13:29:38.777Z,939.2
2017-01-30T13:30:47.179Z,939.2
2017-01-30T13:31:54.847Z,939.2
2017-01-30T13:33:03.384Z,939.2
2017-01-30T13:34:10.978Z,939.3
2017-01-30T13:35:19.317Z,939.4
2017-01-30T19:46:24.204Z,939.4
2017-01-30T19:47:32.285Z,939.4
2017-01-30T19:48:40.385Z,939.4
2017-01-30T19:49:48.481Z,939.4
2017-01-30T19:50:56.566Z,939.3
2017-01-30T19:52:04.779Z,939.4
2017-01-30T19:53:12.750Z,939.5
2017-01-30T19:54:21.006Z,939.4
2017-01-30T19:55:29.261Z,939.5
2017-01-30T19:56:37.024Z,939.5
2017-01-30T19:57:45.166Z,939.4
2017-01-30T19:58:53.195Z,939.5
2017-01-30T20:00:01.286Z,939.4
2017-01-30T20:01:09.375Z,939.5
2017-01-30T20:02:17.464Z,939.4
2017-01-30T20:03:25.624Z,939.4
2017-01-30T20:04:33.760Z,939.4
2017-01-30T20:05:41.861Z,939.4
2017-01-30T20:06:49.844Z,939.3
2017-01-30T20:07:57.939Z,939.4
2017-01-30T20:09:06.157Z,939.4
2017-01-30T20:10:14.127Z,939.4
2017-01-30T20:11:22.217Z,939.4
2017-01-30T20:12:30.307Z,939.4
2017-01-30T20:13:38.407Z,939.5
2017-01-30T20:14:46.607Z,939.4
2017-01-30T20:15:54.584Z,939.4
2017-01-30T20:17:03.199Z,939.5
2017-01-30T20:18:10.763Z,939.4
2017-01-30T20:19:18.850Z,939.4
2017-01-30T20:20:27.005Z,939.5
2017-01-30T20:21:35.037Z,939.4
2017-01-30T20:22:43.124Z,939.5
2017-01-30T20:23:51.212Z,939.5
2017-01-30T20:24:59.302Z,939.5
2017-01-30T20:26:07.509Z,939.5
2017-01-30T20:27:15.485Z,939.5
2017-01-30T20:28:23.585Z,939.5
2017-01-30T20:29:31.673Z,939.5
2017-01-30T20:30:40.004Z,939.5
2017-01-30T20:31:48.085Z,939.5
2017-01-30T20:32:56.061Z,939.5
2017-01-30T20:34:04.034Z,939.5
2017-01-30T20:35:12.231Z,939.5
2017-01-30T20:36:20.219Z,939.5
2017-01-30T20:37:28.360Z,939.4
2017-01-30T20:38:36.396Z,939.4
2017-01-30T20:39:44.484Z,939.4
2017-01-30T20:40:52.575Z,939.4
2017-01-30T20:42:00.819Z,939.5
2017-01-30T20:43:08.805Z,939.5
2017-01-30T20:44:16.841Z,939.5
2017-01-30T20:45:24.934Z,939.5
2017-01-30T20:46:33.020Z,939.5